Time;durP1;ratioP1;P1;durP2;ratioP2;P2;SDS_P1;SDS_P2;PMS_P1;PMS_P2;Temp;Humidity;BMP_temperature;BMP_pressure;BME280_temperature;BME280_humidity;BME280_pressure;Samples;Min_cycle;Max_cycle;Signal;HPM_P1;HPM_P2
2021/10/13 00:02:16;;;;;;;15.38;6.40;;;7.40;99.90;;;;;;5072079;28;20127;-78
2021/10/13 00:04:43;;;;;;;22.20;6.70;;;7.40;99.90;;;;;;5073084;28;20521;-80
2021/10/13 00:07:10;;;;;;;16.00;6.60;;;7.40;99.90;;;;;;5075091;28;20478;-78
2021/10/13 00:09:37;;;;;;;16.77;6.28;;;7.40;99.90;;;;;;5073963;28;20049;-79
2021/10/13 00:12:05;;;;;;;18.20;6.60;;;7.40;99.90;;;;;;5073778;28;20051;-80
2021/10/13 00:14:32;;;;;;;18.70;6.63;;;7.40;99.90;;;;;;5078937;28;20080;-79
2021/10/13 00:17:03;;;;;;;15.20;6.50;;;7.30;99.90;;;;;;5080680;28;20095;-79
2021/10/13 00:19:31;;;;;;;20.02;6.95;;;7.30;99.90;;;;;;5080174;28;20078;-78
2021/10/13 00:21:58;;;;;;;17.17;6.93;;;7.30;99.90;;;;;;5078869;28;20052;-78
2021/10/13 00:24:25;;;;;;;14.05;6.20;;;7.30;99.90;;;;;;5080100;28;20044;-78
2021/10/13 00:26:52;;;;;;;17.90;6.53;;;7.30;99.90;;;;;;5079402;28;20152;-79
2021/10/13 00:29:20;;;;;;;16.33;7.00;;;7.30;99.90;;;;;;5079120;28;20052;-79
2021/10/13 00:31:47;;;;;;;17.80;6.90;;;7.30;99.90;;;;;;5078101;28;20076;-77
2021/10/13 00:34:14;;;;;;;16.67;7.18;;;7.30;99.90;;;;;;5079442;28;20060;-79
2021/10/13 00:36:43;;;;;;;18.48;7.47;;;7.30;99.90;;;;;;5078852;28;20094;-79
2021/10/13 00:39:12;;;;;;;16.90;6.65;;;7.30;99.90;;;;;;5075070;28;20052;-79
2021/10/13 00:41:39;;;;;;;13.90;6.88;;;7.30;99.90;;;;;;5076955;28;20048;-77
2021/10/13 00:44:11;;;;;;;15.93;7.00;;;7.30;99.90;;;;;;5076971;28;20094;-80
2021/10/13 00:46:40;;;;;;;18.10;7.07;;;7.30;99.90;;;;;;5076111;28;20455;-78
2021/10/13 00:49:10;;;;;;;16.65;6.78;;;7.30;99.90;;;;;;5075857;28;20064;-78
2021/10/13 00:52:03;;;;;;;17.85;8.13;;;7.30;99.90;;;;;;5075022;28;20134;-77
2021/10/13 00:54:30;;;;;;;18.38;6.90;;;7.30;99.90;;;;;;5075887;28;20103;-81
2021/10/13 00:56:57;;;;;;;19.92;6.97;;;7.20;99.90;;;;;;5075367;28;20049;-78
2021/10/13 00:59:24;;;;;;;19.35;7.15;;;7.20;99.90;;;;;;5075353;28;20044;-79
2021/10/13 01:01:54;;;;;;;15.80;7.05;;;7.20;99.90;;;;;;5075047;28;20131;-76
2021/10/13 01:04:50;;;;;;;14.95;7.43;;;7.30;99.90;;;;;;5074766;28;20049;-78
2021/10/13 01:07:32;;;;;;;13.70;7.40;;;7.30;99.90;;;;;;5072908;28;20048;-78
2021/10/13 01:10:06;;;;;;;21.73;7.40;;;7.30;99.90;;;;;;5074665;28;20127;-78
2021/10/13 01:12:52;;;;;;;16.45;7.07;;;7.30;99.90;;;;;;5074906;28;20135;-79
2021/10/13 01:15:24;;;;;;;18.38;7.05;;;7.30;99.90;;;;;;5076513;28;20463;-79
2021/10/13 01:17:58;;;;;;;16.67;7.47;;;7.30;99.90;;;;;;5073772;28;20084;-78
2021/10/13 01:20:43;;;;;;;17.55;7.43;;;7.30;99.90;;;;;;5073913;28;20072;-78
2021/10/13 01:23:34;;;;;;;14.88;6.68;;;7.30;99.90;;;;;;5073354;28;20131;-78
2021/10/13 01:26:14;;;;;;;13.65;7.63;;;7.30;99.90;;;;;;5073109;28;20391;-78
2021/10/13 01:28:46;;;;;;;15.70;7.78;;;7.30;99.90;;;;;;5073847;28;20374;-78
2021/10/13 01:31:18;;;;;;;19.65;7.93;;;7.20;99.90;;;;;;5073907;28;20052;-78
2021/10/13 01:33:49;;;;;;;12.27;6.80;;;7.30;99.90;;;;;;5072536;28;20537;-80
2021/10/13 01:36:35;;;;;;;16.65;8.15;;;7.30;99.90;;;;;;5073137;28;20131;-78
2021/10/13 01:39:03;;;;;;;15.02;8.02;;;7.30;99.90;;;;;;5073639;28;20072;-78
2021/10/13 01:41:33;;;;;;;19.17;8.23;;;7.20;99.90;;;;;;5074235;28;20474;-78
2021/10/13 01:44:04;;;;;;;15.95;8.00;;;7.20;99.90;;;;;;5073765;28;20045;-79
2021/10/13 01:46:32;;;;;;;18.48;9.00;;;7.30;99.90;;;;;;5074159;28;20111;-78
2021/10/13 01:49:02;;;;;;;17.08;8.38;;;7.30;99.90;;;;;;5073852;28;20048;-78
2021/10/13 01:51:33;;;;;;;18.55;9.13;;;7.30;99.90;;;;;;5075722;28;20429;-79
2021/10/13 01:54:02;;;;;;;18.65;7.97;;;7.30;99.90;;;;;;5075845;28;20127;-79
2021/10/13 01:56:30;;;;;;;18.98;9.45;;;7.30;99.90;;;;;;5075256;28;20175;-79
2021/10/13 01:58:59;;;;;;;23.58;10.27;;;7.30;99.90;;;;;;5075767;28;20485;-78
2021/10/13 02:01:29;;;;;;;25.75;9.80;;;7.20;99.90;;;;;;5074293;28;20048;-81
2021/10/13 02:04:00;;;;;;;24.42;10.30;;;7.20;99.90;;;;;;5074777;28;20455;-79
2021/10/13 02:06:29;;;;;;;25.10;12.00;;;7.20;99.90;;;;;;5076357;28;20119;-82
2021/10/13 02:08:57;;;;;;;24.25;12.00;;;7.20;99.90;;;;;;5074428;28;20375;-78
2021/10/13 02:11:26;;;;;;;28.92;13.45;;;7.20;99.90;;;;;;5074265;28;20052;-79
2021/10/13 02:13:55;;;;;;;28.20;11.75;;;7.30;99.90;;;;;;5075334;28;20080;-79
2021/10/13 02:16:24;;;;;;;20.13;11.75;;;7.30;99.90;;;;;;5076835;28;20421;-79
2021/10/13 02:18:53;;;;;;;28.50;12.75;;;7.30;99.90;;;;;;5076582;28;20091;-78
2021/10/13 02:21:23;;;;;;;21.73;12.48;;;7.30;99.90;;;;;;5073657;28;20128;-77
2021/10/13 02:23:52;;;;;;;27.88;11.70;;;7.30;99.90;;;;;;5073702;28;20058;-81
2021/10/13 02:26:24;;;;;;;26.33;13.23;;;7.30;99.90;;;;;;5073534;28;20102;-79
2021/10/13 02:28:59;;;;;;;23.38;13.23;;;7.20;99.90;;;;;;5076624;28;20131;-80
2021/10/13 02:31:26;;;;;;;27.80;12.98;;;7.10;99.90;;;;;;5073425;28;20052;-79
2021/10/13 02:33:54;;;;;;;22.48;12.75;;;7.10;99.90;;;;;;5072630;28;20052;-79
2021/10/13 02:36:21;;;;;;;22.70;13.02;;;7.10;99.90;;;;;;5071895;28;20055;-78
2021/10/13 02:39:04;;;;;;;24.25;14.85;;;7.10;99.90;;;;;;5072603;28;20434;-79
2021/10/13 02:41:31;;;;;;;27.08;14.02;;;7.00;99.90;;;;;;5075922;28;20048;-79
2021/10/13 02:43:58;;;;;;;29.75;13.90;;;7.00;99.90;;;;;;5072409;28;20513;-77
2021/10/13 02:46:31;;;;;;;22.02;13.68;;;7.00;99.90;;;;;;5071352;28;20056;-78
2021/10/13 02:49:12;;;;;;;28.55;14.23;;;7.10;99.90;;;;;;5071539;28;20070;-77
2021/10/13 02:51:46;;;;;;;21.27;13.48;;;7.10;99.90;;;;;;5071474;28;20059;-78
2021/10/13 02:54:24;;;;;;;27.48;15.20;;;7.10;99.90;;;;;;5071815;28;20565;-79
2021/10/13 02:56:54;;;;;;;27.95;15.38;;;7.10;99.90;;;;;;5071329;28;20139;-77
2021/10/13 02:59:29;;;;;;;27.38;15.73;;;7.20;99.90;;;;;;5069948;28;20582;-78
2021/10/13 03:01:57;;;;;;;33.15;17.52;;;7.20;99.90;;;;;;5069499;28;20131;-77
2021/10/13 03:04:31;;;;;;;32.28;17.98;;;7.20;99.90;;;;;;5070533;28;20131;-78
2021/10/13 03:07:02;;;;;;;30.90;17.88;;;7.30;99.90;;;;;;5070715;28;20506;-77
2021/10/13 03:09:30;;;;;;;32.20;18.52;;;7.30;99.90;;;;;;5070986;28;20135;-77
2021/10/13 03:12:01;;;;;;;27.50;18.50;;;7.40;99.90;;;;;;5069928;28;20052;-77
2021/10/13 03:21:40;;;;;;;26.60;18.10;;;7.50;99.90;;;;;;4961317;29;20113;-81
2021/10/13 03:24:08;;;;;;;32.20;18.30;;;7.50;99.90;;;;;;4954399;29;20043;-81
2021/10/13 03:26:34;;;;;;;32.40;17.63;;;7.50;99.90;;;;;;5060842;28;20115;-81
2021/10/13 03:29:03;;;;;;;28.92;16.83;;;7.50;99.90;;;;;;5080606;28;20351;-81
2021/10/13 03:31:30;;;;;;;29.63;18.13;;;7.50;99.90;;;;;;5080342;28;20574;-81
2021/10/13 03:33:57;;;;;;;31.83;18.55;;;7.50;99.90;;;;;;5078910;28;20164;-80
2021/10/13 03:36:25;;;;;;;30.33;18.10;;;7.50;99.90;;;;;;5079182;28;20064;-81
2021/10/13 03:38:52;;;;;;;30.40;18.95;;;7.50;99.90;;;;;;5080243;28;20056;-81
2021/10/13 03:41:19;;;;;;;33.95;19.90;;;7.50;99.90;;;;;;5081817;28;20135;-80
2021/10/13 03:43:50;;;;;;;28.73;18.60;;;7.50;99.90;;;;;;5080191;28;20117;-80
2021/10/13 03:46:18;;;;;;;33.03;18.20;;;7.50;99.90;;;;;;5081606;28;20083;-81
2021/10/13 03:48:50;;;;;;;34.30;19.67;;;7.60;99.90;;;;;;5083493;28;20064;-80
2021/10/13 03:51:16;;;;;;;33.75;18.95;;;7.60;99.90;;;;;;5082788;28;20049;-81
2021/10/13 03:53:45;;;;;;;31.27;19.40;;;7.60;99.90;;;;;;5081375;28;20059;-80
2021/10/13 03:56:12;;;;;;;33.75;20.38;;;7.60;99.90;;;;;;5082497;28;20695;-80
2021/10/13 03:58:39;;;;;;;32.38;19.30;;;7.60;99.90;;;;;;5082581;28;20135;-80
2021/10/13 04:01:06;;;;;;;33.30;20.20;;;7.60;99.90;;;;;;5082687;28;20131;-81
2021/10/13 04:03:32;;;;;;;32.85;19.55;;;7.60;99.90;;;;;;5081264;28;20128;-81
2021/10/13 04:05:59;;;;;;;37.20;19.52;;;7.60;99.90;;;;;;5081230;28;20076;-81
2021/10/13 04:08:26;;;;;;;39.42;21.35;;;7.60;99.90;;;;;;5080509;28;20112;-80
2021/10/13 04:10:54;;;;;;;37.00;19.35;;;7.50;99.90;;;;;;5080305;28;20517;-79
2021/10/13 04:13:21;;;;;;;36.97;19.38;;;7.50;99.90;;;;;;5078585;28;20104;-80
2021/10/13 04:15:48;;;;;;;27.60;18.20;;;7.50;99.90;;;;;;5080161;28;20139;-81
2021/10/13 04:18:15;;;;;;;26.52;18.13;;;7.50;99.90;;;;;;5082374;28;20127;-81
2021/10/13 04:20:42;;;;;;;31.40;17.70;;;7.60;99.90;;;;;;5081464;28;20306;-81
2021/10/13 04:23:09;;;;;;;29.63;18.40;;;7.50;99.90;;;;;;5080309;28;20132;-80
2021/10/13 04:25:36;;;;;;;35.42;17.65;;;7.50;99.90;;;;;;5079947;28;20079;-79
2021/10/13 04:28:04;;;;;;;31.42;17.73;;;7.50;99.90;;;;;;5081391;28;20080;-81
2021/10/13 04:30:31;;;;;;;25.90;17.77;;;7.60;99.90;;;;;;5079730;28;20153;-80
2021/10/13 04:32:58;;;;;;;31.00;18.00;;;7.60;99.90;;;;;;5077465;28;20128;-80
2021/10/13 04:35:25;;;;;;;31.80;18.75;;;7.70;99.90;;;;;;5077293;28;20430;-80
2021/10/13 04:37:52;;;;;;;28.90;18.15;;;7.70;99.90;;;;;;5076514;28;20151;-79
2021/10/13 04:40:19;;;;;;;34.67;18.30;;;7.60;99.90;;;;;;5076607;28;20082;-80
2021/10/13 04:42:46;;;;;;;29.52;19.70;;;7.70;99.90;;;;;;5076162;28;20036;-80
2021/10/13 04:45:14;;;;;;;35.50;20.40;;;7.60;99.90;;;;;;5076159;28;20060;-80
2021/10/13 04:47:41;;;;;;;34.72;20.38;;;7.60;99.90;;;;;;5076564;28;20131;-80
2021/10/13 04:50:09;;;;;;;36.00;20.55;;;7.70;99.90;;;;;;5054762;28;20104;-81
2021/10/13 04:52:36;;;;;;;35.60;20.70;;;7.70;99.90;;;;;;5023156;28;20054;-80
2021/10/13 04:55:03;;;;;;;32.88;21.58;;;7.70;99.90;;;;;;5023768;28;20125;-81
2021/10/13 04:57:30;;;;;;;39.25;21.88;;;7.70;99.90;;;;;;5022939;28;20109;-81
2021/10/13 04:59:57;;;;;;;43.03;20.00;;;7.70;99.90;;;;;;5021113;28;20050;-81
2021/10/13 05:02:25;;;;;;;33.85;22.00;;;7.80;99.90;;;;;;5021010;28;20049;-81
2021/10/13 05:04:52;;;;;;;40.95;24.35;;;7.80;99.90;;;;;;5021971;28;20137;-82
2021/10/13 05:07:19;;;;;;;37.72;22.73;;;7.90;99.90;;;;;;5022724;28;20145;-82
2021/10/13 05:09:46;;;;;;;37.35;24.33;;;7.90;99.90;;;;;;5022145;28;20064;-81
2021/10/13 05:12:12;;;;;;;50.40;28.48;;;7.90;99.90;;;;;;5021649;28;20144;-82
2021/10/13 05:14:39;;;;;;;36.45;23.63;;;7.90;99.90;;;;;;5021335;28;20416;-82
2021/10/13 05:17:06;;;;;;;37.17;23.42;;;7.90;99.90;;;;;;5022896;28;20092;-81
2021/10/13 05:19:34;;;;;;;35.00;21.95;;;7.90;99.90;;;;;;5025708;28;20049;-82
2021/10/13 05:22:01;;;;;;;32.40;21.20;;;7.90;99.90;;;;;;5023929;28;20108;-81
2021/10/13 05:24:28;;;;;;;41.08;22.02;;;7.80;99.90;;;;;;5025163;28;20136;-81
2021/10/13 05:26:57;;;;;;;37.03;21.35;;;7.80;99.90;;;;;;5025649;28;20081;-81
2021/10/13 05:29:24;;;;;;;33.92;22.17;;;7.70;99.90;;;;;;5024182;28;20054;-81
2021/10/13 05:31:52;;;;;;;39.15;21.58;;;7.70;99.90;;;;;;5021426;28;20140;-80
2021/10/13 05:34:19;;;;;;;37.58;22.80;;;7.70;99.90;;;;;;5021870;28;20080;-81
2021/10/13 05:36:47;;;;;;;36.20;21.58;;;7.70;99.90;;;;;;5022080;28;20049;-81
2021/10/13 05:39:14;;;;;;;36.22;21.77;;;7.80;99.90;;;;;;5021204;28;20109;-81
2021/10/13 05:41:41;;;;;;;34.65;21.30;;;7.80;99.90;;;;;;5021687;28;20050;-79
2021/10/13 05:44:08;;;;;;;36.28;22.48;;;7.90;99.90;;;;;;5020969;28;20133;-78
2021/10/13 05:46:35;;;;;;;42.25;22.42;;;7.90;99.90;;;;;;5022294;28;20129;-80
2021/10/13 05:49:03;;;;;;;38.65;21.80;;;7.90;99.90;;;;;;5021707;28;20080;-80
2021/10/13 05:51:30;;;;;;;35.78;21.20;;;7.90;99.90;;;;;;5021839;28;20054;-80
2021/10/13 05:53:58;;;;;;;34.85;20.25;;;7.90;99.90;;;;;;5021946;28;20052;-80
2021/10/13 05:56:25;;;;;;;38.47;20.42;;;8.00;99.90;;;;;;5022523;28;20054;-82
2021/10/13 05:58:53;;;;;;;31.60;20.45;;;8.00;99.90;;;;;;5022645;28;20077;-81
2021/10/13 06:01:21;;;;;;;33.25;19.38;;;8.00;99.90;;;;;;5022135;28;20482;-81
2021/10/13 06:03:48;;;;;;;29.83;19.50;;;8.00;99.90;;;;;;5018452;28;20046;-80
2021/10/13 06:06:16;;;;;;;35.92;20.13;;;8.00;99.90;;;;;;5034348;28;20132;-80
2021/10/13 06:08:43;;;;;;;34.78;22.70;;;8.00;99.90;;;;;;5035156;28;20067;-80
2021/10/13 06:11:12;;;;;;;37.15;22.58;;;8.10;99.90;;;;;;5024137;28;20494;-80
2021/10/13 06:13:39;;;;;;;32.58;21.50;;;8.10;99.90;;;;;;5020907;28;20129;-80
2021/10/13 06:16:07;;;;;;;40.40;24.27;;;8.10;99.90;;;;;;5021318;28;20085;-79
2021/10/13 06:18:37;;;;;;;39.22;25.45;;;8.20;99.90;;;;;;5021764;28;20092;-79
2021/10/13 06:21:04;;;;;;;40.55;23.38;;;8.20;99.90;;;;;;5021022;28;20118;-80
2021/10/13 06:23:31;;;;;;;37.28;22.85;;;8.20;99.90;;;;;;5020905;28;20455;-80
2021/10/13 06:25:58;;;;;;;38.92;24.25;;;8.20;99.90;;;;;;5363802;23;20083;-79
2021/10/13 06:28:31;;;;;;;43.25;27.42;;;8.20;99.90;;;;;;5040622;28;20084;-79
2021/10/13 06:30:59;;;;;;;42.10;25.27;;;8.20;99.90;;;;;;5021462;28;20046;-79
2021/10/13 06:33:27;;;;;;;36.58;24.08;;;8.20;99.90;;;;;;5020381;28;20046;-79
2021/10/13 06:35:56;;;;;;;39.72;24.05;;;8.40;99.90;;;;;;5020903;28;20108;-79
2021/10/13 06:38:23;;;;;;;34.72;21.58;;;8.50;99.90;;;;;;5044928;23;20056;-77
2021/10/13 06:40:50;;;;;;;29.90;19.90;;;8.70;99.90;;;;;;5030832;28;20072;-80
2021/10/13 06:43:17;;;;;;;31.05;19.90;;;9.00;99.90;;;;;;5028775;28;20104;-76
2021/10/13 06:45:46;;;;;;;26.67;17.30;;;9.40;99.90;;;;;;5031261;28;20052;-76
2021/10/13 06:48:13;;;;;;;20.73;13.32;;;9.80;99.90;;;;;;5030211;28;20045;-77
2021/10/13 06:50:40;;;;;;;21.35;13.88;;;10.40;99.90;;;;;;5011631;28;20100;-74
2021/10/13 06:53:06;;;;;;;22.98;14.55;;;10.90;99.90;;;;;;5011001;28;20215;-78
2021/10/13 06:55:33;;;;;;;20.63;13.38;;;11.40;99.90;;;;;;5011125;28;20074;-78
2021/10/13 06:58:00;;;;;;;22.38;14.95;;;11.80;99.90;;;;;;5007829;28;20132;-80
2021/10/13 07:00:27;;;;;;;22.20;14.80;;;12.00;99.90;;;;;;5009132;28;20141;-76
2021/10/13 07:02:55;;;;;;;28.00;16.92;;;12.00;99.90;;;;;;5010625;28;20060;-77
2021/10/13 07:05:22;;;;;;;26.20;16.63;;;11.80;99.90;;;;;;5009982;28;20563;-77
2021/10/13 07:07:50;;;;;;;28.05;17.65;;;11.60;99.90;;;;;;5010535;28;20439;-77
2021/10/13 07:10:18;;;;;;;26.05;17.42;;;11.40;99.90;;;;;;5009600;28;20079;-77
2021/10/13 07:12:46;;;;;;;27.08;16.70;;;11.20;99.90;;;;;;5009795;28;20141;-77
2021/10/13 07:15:13;;;;;;;28.15;17.83;;;11.00;99.90;;;;;;5010214;28;20448;-78
2021/10/13 07:17:41;;;;;;;25.35;18.15;;;10.70;99.90;;;;;;5010706;28;20051;-78
2021/10/13 07:20:11;;;;;;;25.52;17.73;;;10.60;99.90;;;;;;5010821;28;20057;-77
2021/10/13 07:22:39;;;;;;;27.48;18.17;;;10.50;99.90;;;;;;5010248;28;20113;-77
2021/10/13 07:25:07;;;;;;;30.27;19.70;;;10.40;99.90;;;;;;5010496;28;20134;-77
2021/10/13 07:27:34;;;;;;;31.88;21.52;;;10.30;99.90;;;;;;5010828;28;20144;-77
2021/10/13 07:30:02;;;;;;;30.50;21.35;;;10.20;99.90;;;;;;5011341;28;20049;-76
2021/10/13 07:32:30;;;;;;;31.85;21.77;;;10.20;99.90;;;;;;5010563;28;20053;-77
2021/10/13 07:34:58;;;;;;;34.20;23.05;;;10.30;99.90;;;;;;5010733;28;20049;-76
2021/10/13 07:37:27;;;;;;;30.77;19.25;;;10.40;99.90;;;;;;5010768;28;20098;-77
2021/10/13 07:39:55;;;;;;;23.77;16.27;;;10.70;99.90;;;;;;5010900;28;20056;-78
2021/10/13 07:42:23;;;;;;;19.83;14.20;;;11.00;99.90;;;;;;5010318;28;20046;-76
2021/10/13 07:44:50;;;;;;;21.25;12.25;;;11.40;99.90;;;;;;5010367;28;20053;-78
2021/10/13 07:47:17;;;;;;;20.70;12.13;;;11.70;99.90;;;;;;5010103;28;20157;-77
2021/10/13 07:49:43;;;;;;;18.50;12.30;;;11.60;99.90;;;;;;5010949;28;20088;-77
2021/10/13 07:52:13;;;;;;;20.48;12.80;;;11.50;99.90;;;;;;5011094;28;20116;-75
2021/10/13 07:54:46;;;;;;;22.33;13.50;;;11.30;99.90;;;;;;5011301;28;20129;-77
2021/10/13 07:57:15;;;;;;;25.27;13.60;;;11.00;99.90;;;;;;5011646;28;20250;-77
2021/10/13 08:02:35;;;;;;;19.75;12.85;;;10.80;99.90;;;;;;5025936;28;20073;-75
2021/10/13 08:05:02;;;;;;;23.52;12.52;;;11.00;99.90;;;;;;5030280;28;20046;-76
2021/10/13 08:07:29;;;;;;;24.52;14.73;;;11.30;99.90;;;;;;5010191;28;20049;-76
2021/10/13 08:09:57;;;;;;;18.35;13.25;;;11.40;99.90;;;;;;5010083;28;20082;-76
2021/10/13 08:12:24;;;;;;;21.25;13.25;;;11.40;99.90;;;;;;5009732;28;20049;-77
2021/10/13 08:14:51;;;;;;;19.23;12.35;;;11.60;99.90;;;;;;5009923;28;20559;-76
2021/10/13 08:17:18;;;;;;;18.05;12.73;;;11.80;99.90;;;;;;5010531;28;20467;-78
2021/10/13 08:19:45;;;;;;;22.90;13.88;;;11.90;99.90;;;;;;5009820;28;20191;-76
2021/10/13 08:22:12;;;;;;;22.55;15.23;;;11.90;99.90;;;;;;5010240;28;20046;-77
2021/10/13 08:24:39;;;;;;;23.20;15.73;;;12.00;99.90;;;;;;5010242;28;20133;-78
2021/10/13 08:27:07;;;;;;;22.67;16.63;;;12.10;99.90;;;;;;5010310;28;20050;-76
2021/10/13 08:29:34;;;;;;;22.98;17.23;;;12.10;99.90;;;;;;5010786;28;20132;-77
2021/10/13 08:32:01;;;;;;;28.80;17.27;;;12.20;99.90;;;;;;5010097;28;20412;-78
2021/10/13 08:34:28;;;;;;;26.90;18.15;;;12.30;99.90;;;;;;5014024;28;20140;-76
2021/10/13 08:36:55;;;;;;;27.25;18.30;;;12.30;99.90;;;;;;5013810;28;20299;-77
2021/10/13 08:39:25;;;;;;;19.75;12.55;;;12.30;99.90;;;;;;5013699;28;20050;-77
2021/10/13 08:41:51;;;;;;;16.77;10.98;;;12.20;99.90;;;;;;5013930;28;20133;-78
2021/10/13 08:44:27;;;;;;;15.75;11.07;;;12.10;99.90;;;;;;5015119;28;20121;-78
2021/10/13 08:47:40;;;;;;;16.27;11.60;;;12.00;99.90;;;;;;5015949;28;20049;-78
2021/10/13 08:50:10;;;;;;;20.77;12.00;;;12.00;99.90;;;;;;5033169;28;20053;-77
2021/10/13 08:52:37;;;;;;;17.48;11.30;;;12.00;99.90;;;;;;5033425;28;20057;-76
2021/10/13 08:55:07;;;;;;;20.38;11.00;;;12.00;99.90;;;;;;5027314;28;20056;-77
2021/10/13 08:57:52;;;;;;;15.63;11.43;;;12.00;99.90;;;;;;5033848;28;20049;-76
2021/10/13 09:00:25;;;;;;;20.55;12.27;;;12.00;99.90;;;;;;5032402;28;20093;-78
2021/10/13 09:02:54;;;;;;;15.02;10.88;;;12.00;99.90;;;;;;5032443;28;20056;-77
2021/10/13 09:09:06;;;;;;;21.13;11.00;;;11.90;99.90;;;;;;5135466;23;20841;-76
2021/10/13 09:11:51;;;;;;;17.73;11.15;;;12.00;99.90;;;;;;5012733;28;20050;-79
2021/10/13 09:14:28;;;;;;;14.38;9.90;;;12.30;99.90;;;;;;5012949;28;20466;-80
2021/10/13 09:17:16;;;;;;;15.73;9.90;;;12.40;99.90;;;;;;5018102;28;20054;-79
2021/10/13 09:22:32;;;;;;;18.92;9.45;;;12.50;99.90;;;;;;5017473;28;20042;-80
2021/10/13 09:25:04;;;;;;;17.70;9.80;;;12.60;99.90;;;;;;5018769;28;20057;-78
2021/10/13 09:27:38;;;;;;;12.65;9.75;;;12.60;99.90;;;;;;5019789;28;20045;-82
2021/10/13 09:30:08;;;;;;;15.07;10.20;;;12.60;99.90;;;;;;5018903;28;20130;-83
2021/10/13 09:32:41;;;;;;;14.13;9.63;;;12.60;99.90;;;;;;5018747;28;20049;-83
2021/10/13 09:35:11;;;;;;;14.55;9.82;;;12.60;99.90;;;;;;5021782;28;20085;-82
2021/10/13 09:37:47;;;;;;;15.73;9.35;;;12.70;99.90;;;;;;5022562;28;20251;-84
2021/10/13 09:40:40;;;;;;;15.20;9.70;;;12.70;99.90;;;;;;5020300;28;20056;-82
2021/10/13 09:43:25;;;;;;;15.32;9.30;;;12.90;99.90;;;;;;5018922;28;20487;-81
2021/10/13 09:46:02;;;;;;;13.85;8.90;;;13.10;99.90;;;;;;5019799;28;20126;-82
2021/10/13 09:48:30;;;;;;;12.40;8.27;;;13.20;99.90;;;;;;5000383;28;20571;-83
2021/10/13 09:51:14;;;;;;;17.25;8.77;;;13.30;99.90;;;;;;5021705;28;20093;-82
2021/10/13 09:53:43;;;;;;;18.13;8.68;;;13.20;99.90;;;;;;5017448;28;20057;-83
2021/10/13 09:56:30;;;;;;;13.95;8.45;;;13.10;99.90;;;;;;5015379;28;20439;-80
2021/10/13 09:59:15;;;;;;;15.05;8.95;;;13.10;99.90;;;;;;5015754;28;20053;-83
2021/10/13 10:01:47;;;;;;;18.27;8.45;;;13.00;99.90;;;;;;5017008;28;20132;-83
2021/10/13 10:04:18;;;;;;;10.93;8.77;;;13.00;99.90;;;;;;5016410;28;20046;-83
2021/10/13 10:06:50;;;;;;;13.95;8.98;;;13.00;99.90;;;;;;5016487;28;20050;-83
2021/10/13 10:09:33;;;;;;;16.10;8.38;;;13.00;99.90;;;;;;5016030;28;20050;-80
2021/10/13 10:12:13;;;;;;;;;;;13.10;99.90;;;;;;5016959;28;20054;-79
2021/10/13 10:14:57;;;;;;;11.25;7.88;;;13.30;99.90;;;;;;5015249;28;20425;-79
2021/10/13 10:17:53;;;;;;;14.80;9.10;;;13.40;99.90;;;;;;4998186;28;20492;-80
2021/10/13 10:20:55;;;;;;;13.30;7.95;;;13.50;99.90;;;;;;5000414;28;20523;-82
2021/10/13 10:23:41;;;;;;;11.48;7.93;;;13.60;99.90;;;;;;5003333;28;20046;-83
2021/10/13 10:26:45;;;;;;;13.57;8.13;;;13.50;99.90;;;;;;5015370;28;20058;-83
2021/10/13 10:30:04;;;;;;;11.43;7.57;;;13.50;99.90;;;;;;5025379;28;20060;-81
2021/10/13 10:32:47;;;;;;;13.38;8.48;;;13.60;99.90;;;;;;5019097;28;20105;-83
2021/10/13 10:35:16;;;;;;;11.00;8.07;;;13.70;99.90;;;;;;5062683;23;20053;-80
2021/10/13 10:37:46;;;;;;;15.73;7.95;;;13.60;99.90;;;;;;5063963;28;20095;-80
2021/10/13 10:40:24;;;;;;;10.98;6.88;;;13.70;99.90;;;;;;5065087;28;20052;-81
2021/10/13 10:43:02;;;;;;;12.88;8.18;;;13.70;99.90;;;;;;5063576;28;20427;-82
2021/10/13 10:45:32;;;;;;;17.17;9.15;;;13.80;99.90;;;;;;5061613;28;20053;-80
2021/10/13 10:48:20;;;;;;;14.80;8.35;;;13.90;99.90;;;;;;5060320;28;20136;-80
2021/10/13 10:50:58;;;;;;;15.88;8.40;;;14.00;99.90;;;;;;5053988;28;20084;-80
2021/10/13 10:53:29;;;;;;;20.15;7.65;;;14.20;99.90;;;;;;5059183;28;20067;-81
2021/10/13 10:56:14;;;;;;;13.65;7.43;;;14.30;99.90;;;;;;5060141;28;20052;-82
2021/10/13 10:58:45;;;;;;;14.15;7.32;;;14.40;99.90;;;;;;5041926;28;20110;-80
2021/10/13 11:01:15;;;;;;;10.77;6.03;;;14.40;99.90;;;;;;5036751;28;20084;-79
2021/10/13 11:03:43;;;;;;;10.55;5.32;;;14.30;99.90;;;;;;5042500;28;20128;-79
2021/10/13 11:06:18;;;;;;;13.02;6.80;;;14.20;99.90;;;;;;5054103;28;20080;-78
2021/10/13 11:09:03;;;;;;;10.18;5.78;;;14.10;99.90;;;;;;5051302;28;20517;-79
2021/10/13 11:11:32;;;;;;;13.35;6.25;;;14.20;99.90;;;;;;5041921;28;20135;-80
2021/10/13 11:14:08;;;;;;;13.35;5.57;;;14.30;99.90;;;;;;5036159;28;20448;-79
2021/10/13 11:16:51;;;;;;;10.35;5.38;;;14.40;99.90;;;;;;5037120;28;20045;-79
2021/10/13 11:19:21;;;;;;;13.85;5.40;;;14.60;99.90;;;;;;5036059;28;20049;-80
2021/10/13 11:21:55;;;;;;;11.30;5.00;;;14.80;99.90;;;;;;5038704;28;20476;-79
2021/10/13 11:24:24;;;;;;;10.07;5.45;;;15.00;99.90;;;;;;5039388;28;20072;-80
2021/10/13 11:26:51;;;;;;;11.75;5.15;;;14.90;99.90;;;;;;5040494;28;20133;-81
2021/10/13 11:29:20;;;;;;;15.27;5.40;;;14.90;99.90;;;;;;5039353;28;20091;-82
2021/10/13 11:31:47;;;;;;;14.38;6.38;;;14.70;99.90;;;;;;5038267;28;20057;-80
2021/10/13 11:34:17;;;;;;;10.65;5.65;;;14.40;99.90;;;;;;5041483;28;20490;-80
2021/10/13 11:37:05;;;;;;;10.90;5.93;;;14.10;99.90;;;;;;5038975;28;20119;-81
2021/10/13 11:39:34;;;;;;;11.13;5.35;;;13.90;99.90;;;;;;5040076;28;20049;-81
2021/10/13 11:42:02;;;;;;;9.98;4.30;;;13.90;99.90;;;;;;5037328;28;20053;-80
2021/10/13 11:44:35;;;;;;;8.00;3.53;;;13.80;99.90;;;;;;5051637;28;20422;-80
2021/10/13 11:47:07;;;;;;;7.88;3.70;;;13.70;99.90;;;;;;5043838;28;20148;-80
2021/10/13 11:49:58;;;;;;;8.65;3.95;;;13.70;99.90;;;;;;5035835;28;20476;-80
2021/10/13 11:52:25;;;;;;;5.50;3.17;;;13.70;99.90;;;;;;5037029;28;20049;-79
2021/10/13 11:55:03;;;;;;;6.80;2.95;;;13.60;99.90;;;;;;5037211;28;20099;-81
2021/10/13 11:57:31;;;;;;;7.07;3.20;;;13.70;99.90;;;;;;5037565;28;20060;-80
2021/10/13 12:00:28;;;;;;;7.00;3.00;;;13.80;99.90;;;;;;5038846;28;20507;-81
2021/10/13 12:03:03;;;;;;;9.70;3.92;;;13.90;99.90;;;;;;5038962;28;20052;-80
2021/10/13 12:05:33;;;;;;;8.82;4.00;;;13.90;99.90;;;;;;5037352;28;20132;-78
2021/10/13 12:08:07;;;;;;;8.95;5.28;;;13.90;99.90;;;;;;5040521;28;20126;-77
2021/10/13 12:10:37;;;;;;;10.73;5.10;;;13.80;99.90;;;;;;5044458;28;20046;-80
2021/10/13 12:13:29;;;;;;;10.60;5.28;;;13.70;99.90;;;;;;5040475;28;20096;-81
2021/10/13 12:15:58;;;;;;;13.38;5.20;;;13.80;99.90;;;;;;5040016;28;20057;-81
2021/10/13 12:18:27;;;;;;;10.82;5.20;;;13.90;99.90;;;;;;5041156;28;20057;-81
2021/10/13 12:21:09;;;;;;;12.13;5.30;;;13.90;99.90;;;;;;5041227;28;20045;-80
2021/10/13 12:23:52;;;;;;;7.68;5.38;;;14.00;99.90;;;;;;5041568;28;20054;-81
2021/10/13 12:29:11;;;;;;;8.77;5.43;;;14.00;99.90;;;;;;5041158;28;20060;-80
2021/10/13 12:31:39;;;;;;;10.73;5.30;;;14.00;99.90;;;;;;5041978;28;20081;-79
2021/10/13 12:34:07;;;;;;;11.77;6.40;;;13.90;99.90;;;;;;5041474;28;20487;-80
2021/10/13 12:36:37;;;;;;;11.82;5.85;;;13.90;99.90;;;;;;5047129;28;20560;-80
2021/10/13 12:39:09;;;;;;;9.93;5.25;;;13.80;99.90;;;;;;5042359;28;20099;-80
2021/10/13 12:41:40;;;;;;;11.82;5.93;;;13.90;99.90;;;;;;5040720;28;20049;-80
2021/10/13 12:44:13;;;;;;;8.93;5.03;;;13.90;99.90;;;;;;5039514;28;20459;-80
2021/10/13 12:46:40;;;;;;;11.00;4.93;;;14.10;99.90;;;;;;5043264;28;20129;-80
2021/10/13 12:49:15;;;;;;;7.97;4.18;;;14.20;99.90;;;;;;5041540;28;20222;-78
2021/10/13 12:51:53;;;;;;;10.30;4.88;;;14.20;99.90;;;;;;5041074;28;20132;-79
2021/10/13 12:54:20;;;;;;;8.00;4.70;;;14.10;99.90;;;;;;5039975;28;20041;-79
2021/10/13 12:56:49;;;;;;;13.68;5.13;;;14.10;99.90;;;;;;5039551;28;20548;-81
2021/10/13 12:59:17;;;;;;;6.97;4.05;;;14.10;99.90;;;;;;5036005;28;20112;-81
2021/10/13 13:01:43;;;;;;;9.65;4.07;;;14.20;99.90;;;;;;5041097;28;20052;-83
2021/10/13 13:04:10;;;;;;;6.40;3.53;;;14.40;99.90;;;;;;5041188;28;20077;-80
2021/10/13 13:06:39;;;;;;;7.25;3.63;;;14.40;99.90;;;;;;5044789;28;20493;-80
2021/10/13 13:09:06;;;;;;;7.47;3.92;;;14.50;99.90;;;;;;5041030;28;20096;-81
2021/10/13 13:11:33;;;;;;;8.38;4.55;;;14.50;99.90;;;;;;5039800;28;20113;-80
2021/10/13 13:14:01;;;;;;;11.57;4.95;;;14.70;99.90;;;;;;5041080;28;20519;-81
2021/10/13 13:16:28;;;;;;;7.82;4.70;;;14.90;99.90;;;;;;5042871;28;20045;-82
2021/10/13 13:18:55;;;;;;;10.07;4.80;;;15.00;99.90;;;;;;5043314;28;20132;-82